Roland, Indiana
Current Conditions -  °F | °C
As of 10:15 AM on Saturday 22 Nov 2014 (Local Time) from KDCY Reporting Station
Overcast Overcast  
Wind Chill: 52°   Ceiling: 9500
Heat Index: 52°   Visibility: 10mi
Dew Point: 42°   Wind: 18mph
Humidity: 68%   Direction: 190°S
Pressure: 30.2"   Gusts: 25mph
Location:  38.6165°N, 86.6265°W
Report Text: KDCY 221515Z AUTO 19016G22KT 10SM OVC095 11/05 A3020 RMK AO2 T01100054
Loading
Personal Weather Stations






























Interactive Weather Map New forecast layout! Learn more

10-Day Weather Forecast

Advertisements
Track Severe Weather on mobile